createdAt,value
2019-05-02T00:00:52.289Z,999.07
2019-05-02T00:01:51.192Z,999.09
2019-05-02T00:02:49.783Z,999.02
2019-05-02T00:03:48.409Z,998.99
2019-05-02T00:04:50.935Z,999.04
2019-05-02T00:05:45.647Z,999.03
2019-05-02T00:06:44.339Z,999.01
2019-05-02T00:07:42.773Z,999.04
2019-05-02T00:08:41.328Z,999.05
2019-05-02T00:09:47.035Z,998.99
2019-05-02T00:10:38.481Z,999.02
2019-05-02T00:11:37.020Z,998.94
2019-05-02T00:12:35.571Z,998.98
2019-05-02T00:13:34.139Z,998.92
2019-05-02T00:14:32.789Z,998.93
2019-05-02T00:15:32.986Z,998.86
2019-05-02T00:16:29.954Z,998.92
2019-05-02T00:17:28.521Z,998.9
2019-05-02T00:18:27.267Z,998.9
2019-05-02T00:19:25.815Z,998.88
2019-05-02T00:20:25.795Z,998.86
2019-05-02T00:21:23.064Z,998.85
2019-05-02T00:22:21.664Z,998.81
2019-05-02T00:23:22.917Z,998.85
2019-05-02T00:24:18.803Z,998.8
2019-05-02T00:25:17.474Z,998.78
2019-05-02T00:26:16.035Z,998.78
2019-05-02T00:27:14.726Z,998.76
2019-05-02T00:28:14.000Z,998.73
2019-05-02T00:29:11.943Z,998.73
2019-05-02T00:30:10.593Z,998.69
2019-05-02T00:31:11.454Z,998.7
2019-05-02T00:32:07.729Z,998.74
2019-05-02T00:33:06.309Z,998.67
2019-05-02T00:34:04.891Z,998.7
2019-05-02T00:35:03.456Z,998.65
2019-05-02T00:36:02.030Z,998.69
2019-05-02T00:37:00.807Z,998.71
2019-05-02T00:38:02.366Z,998.71
2019-05-02T00:38:58.134Z,998.65
2019-05-02T00:39:56.814Z,998.67
2019-05-02T00:40:57.304Z,998.65
2019-05-02T00:41:53.950Z,998.63
2019-05-02T00:42:53.150Z,998.61
2019-05-02T00:43:51.081Z,998.6
2019-05-02T00:44:49.653Z,998.61
2019-05-02T00:45:48.214Z,998.57
2019-05-02T00:46:46.923Z,998.61
2019-05-02T00:47:47.567Z,998.58
2019-05-02T00:48:44.129Z,998.6
2019-05-02T00:49:42.962Z,998.57
2019-05-02T00:50:45.255Z,998.58
2019-05-02T00:51:40.103Z,998.57
2019-05-02T00:52:38.664Z,998.55
2019-05-02T00:53:37.261Z,998.51
2019-05-02T00:54:35.825Z,998.53
2019-05-02T00:55:35.555Z,998.56
2019-05-02T00:56:33.078Z,998.54
2019-05-02T00:57:31.634Z,998.49
2019-05-02T00:58:31.856Z,998.53
2019-05-02T00:59:28.844Z,998.5
2019-05-02T01:00:27.413Z,998.46
2019-05-02T01:01:29.357Z,998.45
2019-05-02T01:02:24.611Z,998.51
2019-05-02T01:03:23.213Z,998.46
2019-05-02T01:04:23.235Z,998.46
2019-05-02T01:05:20.340Z,998.44
2019-05-02T01:06:18.918Z,998.51
2019-05-02T01:07:20.218Z,998.47
2019-05-02T01:08:16.025Z,998.45
2019-05-02T01:09:14.862Z,998.47
2019-05-02T01:10:17.191Z,998.5
2019-05-02T01:11:12.058Z,998.46
2019-05-02T01:12:10.790Z,998.46
2019-05-02T01:13:09.344Z,998.53
2019-05-02T01:14:07.866Z,998.5
2019-05-02T01:15:08.258Z,998.43
2019-05-02T01:16:05.009Z,998.45
2019-05-02T01:17:03.542Z,998.42
2019-05-02T01:18:05.980Z,998.46
2019-05-02T01:19:00.732Z,998.48
2019-05-02T01:19:59.369Z,998.47
2019-05-02T01:21:02.338Z,998.44
2019-05-02T01:21:56.563Z,998.47
2019-05-02T01:22:55.415Z,998.49
2019-05-02T01:23:53.965Z,998.48
2019-05-02T01:24:52.576Z,998.56
2019-05-02T01:25:52.652Z,998.58
2019-05-02T01:26:49.676Z,998.55
2019-05-02T01:27:48.222Z,998.52
2019-05-02T01:28:49.121Z,998.44
2019-05-02T01:29:45.329Z,998.45
2019-05-02T01:30:43.990Z,998.49
2019-05-02T01:31:42.462Z,998.52
2019-05-02T01:32:41.229Z,998.57
2019-05-02T01:33:41.648Z,998.57
2019-05-02T01:34:38.427Z,998.64
2019-05-02T01:35:37.065Z,998.66
2019-05-02T01:36:36.665Z,998.66
2019-05-02T01:37:34.262Z,998.76
2019-05-02T01:38:33.765Z,998.7
2019-05-02T01:39:31.382Z,998.71
2019-05-02T01:40:29.895Z,998.71
2019-05-02T01:41:29.062Z,998.72
2019-05-02T01:42:39.224Z,998.72
2019-05-02T01:43:25.751Z,998.64
2019-05-02T01:44:24.113Z,998.64
2019-05-02T01:45:22.808Z,998.64
2019-05-02T01:46:22.152Z,998.66
2019-05-02T01:47:19.921Z,998.65
2019-05-02T01:48:18.607Z,998.68
2019-05-02T01:49:21.710Z,998.65
2019-05-02T01:50:15.919Z,998.7
2019-05-02T01:51:14.518Z,998.71
2019-05-02T01:52:13.082Z,998.71
2019-05-02T01:53:11.636Z,998.72
2019-05-02T01:54:11.381Z,998.72
2019-05-02T01:55:08.837Z,998.72
2019-05-02T01:56:07.467Z,998.7
2019-05-02T01:57:08.602Z,998.74
2019-05-02T01:58:04.651Z,998.74
2019-05-02T01:59:03.354Z,998.75
2019-05-02T02:00:04.111Z,998.75
2019-05-02T02:01:00.522Z,998.82
2019-05-02T02:01:59.234Z,998.82
2019-05-02T02:02:57.692Z,998.83
2019-05-02T02:03:56.262Z,998.85
2019-05-02T02:04:56.806Z,998.93
2019-05-02T02:05:53.387Z,998.93
2019-05-02T02:06:51.919Z,998.86
2019-05-02T02:07:50.717Z,998.89
2019-05-02T02:08:49.318Z,998.89
2019-05-02T02:09:47.893Z,998.91
2019-05-02T02:10:50.394Z,998.92
2019-05-02T02:11:45.245Z,998.87
2019-05-02T02:13:02.406Z,998.92
2019-05-02T02:13:42.374Z,998.9
2019-05-02T02:14:40.949Z,998.89
2019-05-02T02:15:39.522Z,998.86
2019-05-02T02:16:39.204Z,998.87
2019-05-02T02:17:36.785Z,998.9
2019-05-02T02:18:35.420Z,998.88
2019-05-02T02:19:34.564Z,998.91
2019-05-02T02:20:32.621Z,998.87
2019-05-02T02:21:31.277Z,998.87
2019-05-02T02:22:33.669Z,998.85
2019-05-02T02:23:28.393Z,998.91
2019-05-02T02:24:27.009Z,998.8
2019-05-02T02:25:25.591Z,998.77
2019-05-02T02:26:24.184Z,998.78
2019-05-02T02:27:24.530Z,998.8
2019-05-02T02:28:21.277Z,998.8
2019-05-02T02:29:19.853Z,998.8
2019-05-02T02:30:24.257Z,998.8
2019-05-02T02:31:17.264Z,998.76
2019-05-02T02:32:19.902Z,998.81
2019-05-02T02:33:14.669Z,998.77
2019-05-02T02:34:13.225Z,998.77
2019-05-02T02:35:12.633Z,998.77
2019-05-02T02:36:10.349Z,998.77
2019-05-02T02:37:12.326Z,998.78
2019-05-02T02:38:07.801Z,998.75
2019-05-02T02:39:06.809Z,998.74
2019-05-02T02:40:04.996Z,998.76
2019-05-02T02:41:06.322Z,998.79
2019-05-02T02:42:02.200Z,998.79
2019-05-02T02:43:10.048Z,998.74
2019-05-02T02:44:00.464Z,998.78
2019-05-02T02:44:57.922Z,998.76
2019-05-02T02:45:57.530Z,998.74
2019-05-02T02:46:55.001Z,998.75
2019-05-02T02:47:59.782Z,998.74
2019-05-02T02:48:52.130Z,998.74
2019-05-02T02:49:55.662Z,998.76
2019-05-02T02:50:49.517Z,998.75
2019-05-02T02:51:48.065Z,998.76
2019-05-02T02:52:47.086Z,998.71
2019-05-02T02:53:45.403Z,998.67
2019-05-02T02:54:44.960Z,998.72
2019-05-02T02:55:42.578Z,998.66
2019-05-02T02:56:42.664Z,998.67
2019-05-02T02:57:39.741Z,998.7
2019-05-02T02:58:45.455Z,998.67
2019-05-02T02:59:36.974Z,998.7
2019-05-02T03:00:35.559Z,998.63
2019-05-02T03:01:34.086Z,998.66
2019-05-02T03:02:32.703Z,998.66
2019-05-02T03:03:35.051Z,998.63
2019-05-02T03:04:29.928Z,998.64
2019-05-02T03:05:28.623Z,998.68
2019-05-02T03:06:27.212Z,998.69
2019-05-02T03:07:28.734Z,998.64
2019-05-02T03:08:24.336Z,998.62
2019-05-02T03:09:26.450Z,998.63
2019-05-02T03:10:21.433Z,998.66
2019-05-02T03:11:23.294Z,998.67
2019-05-02T03:12:18.680Z,998.64
2019-05-02T03:13:21.605Z,998.63
2019-05-02T03:14:15.841Z,998.67
2019-05-02T03:15:14.452Z,998.66
2019-05-02T03:16:13.247Z,998.63
2019-05-02T03:17:11.805Z,998.64
2019-05-02T03:18:10.405Z,998.67
2019-05-02T03:19:14.517Z,998.64
2019-05-02T03:20:07.571Z,998.64
2019-05-02T03:21:06.106Z,998.61
2019-05-02T03:22:04.643Z,998.62
2019-05-02T03:23:03.238Z,998.62
2019-05-02T03:24:05.744Z,998.57
2019-05-02T03:25:03.662Z,998.6
2019-05-02T03:26:07.769Z,998.57
2019-05-02T03:27:01.073Z,998.56
2019-05-02T03:27:59.670Z,998.59
2019-05-02T03:29:00.603Z,998.58
2019-05-02T03:29:57.100Z,998.54
2019-05-02T03:30:55.629Z,998.59
2019-05-02T03:32:11.343Z,998.58
2019-05-02T03:33:05.142Z,998.59
2019-05-02T03:33:55.371Z,998.54
2019-05-02T03:34:53.222Z,998.55
2019-05-02T03:35:49.517Z,998.59
2019-05-02T03:36:47.637Z,998.56
2019-05-02T03:37:51.256Z,998.58
2019-05-02T03:38:45.075Z,998.55
2019-05-02T03:39:49.294Z,998.59
2019-05-02T03:40:42.223Z,998.57
2019-05-02T03:41:41.423Z,998.6
2019-05-02T03:42:44.502Z,998.62
2019-05-02T03:43:38.682Z,998.61
2019-05-02T03:44:37.269Z,998.62
2019-05-02T03:45:39.747Z,998.59
2019-05-02T03:46:34.409Z,998.66
2019-05-02T03:47:36.631Z,998.59
2019-05-02T03:48:31.534Z,998.62
2019-05-02T03:49:30.087Z,998.63
2019-05-02T03:50:32.320Z,998.65
2019-05-02T03:51:27.471Z,998.67
2019-05-02T03:52:26.073Z,998.66
2019-05-02T03:53:27.437Z,998.67
2019-05-02T03:54:23.487Z,998.7
2019-05-02T03:55:23.657Z,998.66
2019-05-02T03:56:20.593Z,998.64
2019-05-02T03:57:31.513Z,998.62
2019-05-02T03:58:17.734Z,998.63
2019-05-02T03:59:17.050Z,998.63
2019-05-02T04:00:20.673Z,998.66
2019-05-02T04:01:14.157Z,998.7
2019-05-02T04:02:13.866Z,998.69
2019-05-02T04:03:11.302Z,998.73
2019-05-02T04:04:14.011Z,998.7
2019-05-02T04:05:08.527Z,998.7
2019-05-02T04:06:07.427Z,998.74
2019-05-02T04:07:05.929Z,998.71
2019-05-02T04:08:04.481Z,998.73
2019-05-02T04:09:03.120Z,998.72
2019-05-02T04:10:01.711Z,998.69
2019-05-02T04:11:01.790Z,998.75
2019-05-02T04:11:58.869Z,998.72
2019-05-02T04:12:58.319Z,998.72
2019-05-02T04:13:56.086Z,998.74
2019-05-02T04:14:55.891Z,998.73
2019-05-02T04:15:53.389Z,998.71
2019-05-02T04:16:55.037Z,998.77
2019-05-02T04:17:50.654Z,998.69
2019-05-02T04:18:55.387Z,998.69
2019-05-02T04:19:47.760Z,998.72
2019-05-02T04:20:49.476Z,998.63
2019-05-02T04:21:44.901Z,998.72
2019-05-02T04:22:48.851Z,998.65
2019-05-02T04:23:42.046Z,998.66
2019-05-02T04:24:40.792Z,998.67
2019-05-02T04:25:39.436Z,998.66
2019-05-02T04:26:37.975Z,998.67
2019-05-02T04:27:36.867Z,998.7
2019-05-02T04:28:35.440Z,998.68
2019-05-02T04:29:34.153Z,998.68
2019-05-02T04:30:32.916Z,998.67
2019-05-02T04:31:33.564Z,998.63
2019-05-02T04:32:30.024Z,998.62
2019-05-02T04:33:34.273Z,998.65
2019-05-02T04:34:27.443Z,998.65
2019-05-02T04:35:28.655Z,998.63
2019-05-02T04:36:24.615Z,998.65
2019-05-02T04:37:23.188Z,998.65
2019-05-02T04:38:31.385Z,998.63
2019-05-02T04:39:21.583Z,998.66
2019-05-02T04:40:19.180Z,998.67
2019-05-02T04:41:27.946Z,998.7
2019-05-02T04:42:21.949Z,998.64
2019-05-02T04:43:18.208Z,998.64
2019-05-02T04:44:13.652Z,998.68
2019-05-02T04:45:24.744Z,998.69
2019-05-02T04:46:17.822Z,998.65
2019-05-02T04:47:14.119Z,998.68
2019-05-02T04:48:08.498Z,998.69
2019-05-02T04:49:09.084Z,998.73
2019-05-02T04:50:07.442Z,998.7
2019-05-02T04:51:09.670Z,998.72
2019-05-02T04:52:07.648Z,998.7
2019-05-02T04:53:00.847Z,998.73
2019-05-02T04:53:59.429Z,998.71
2019-05-02T04:55:07.853Z,998.73
2019-05-02T04:56:01.357Z,998.74
2019-05-02T04:56:55.509Z,998.75
2019-05-02T04:57:53.793Z,998.73
2019-05-02T04:58:52.420Z,998.75
2019-05-02T05:00:02.114Z,998.73
2019-05-02T05:00:51.259Z,998.75
2019-05-02T05:01:52.867Z,998.72
2019-05-02T05:02:48.378Z,998.75
2019-05-02T05:03:49.014Z,998.78
2019-05-02T05:04:46.875Z,998.75
2019-05-02T05:05:42.692Z,998.76
2019-05-02T05:06:52.382Z,998.79
2019-05-02T05:07:45.710Z,998.79
2019-05-02T05:08:41.532Z,998.82
2019-05-02T05:09:39.820Z,998.78
2019-05-02T05:10:41.248Z,998.85
2019-05-02T05:11:34.490Z,998.83
2019-05-02T05:12:37.887Z,998.84
2019-05-02T05:13:31.749Z,998.84
2019-05-02T05:14:37.828Z,998.87
2019-05-02T05:15:37.854Z,998.82
2019-05-02T05:16:28.597Z,998.89
2019-05-02T05:17:32.420Z,998.9
2019-05-02T05:18:24.826Z,998.89
2019-05-02T05:19:28.545Z,998.85
2019-05-02T05:20:21.966Z,998.92
2019-05-02T05:21:24.627Z,998.89
2019-05-02T05:22:19.386Z,998.88
2019-05-02T05:23:21.274Z,998.9
2019-05-02T05:24:18.105Z,998.92
2019-05-02T05:25:17.520Z,998.83
2019-05-02T05:26:13.951Z,998.93
2019-05-02T05:27:13.143Z,998.9
2019-05-02T05:28:11.024Z,998.84
2019-05-02T05:29:13.866Z,998.91
2019-05-02T05:30:15.139Z,998.89
2019-05-02T05:31:07.641Z,998.9
2019-05-02T05:32:09.382Z,998.87
2019-05-02T05:33:03.933Z,998.89
2019-05-02T05:34:02.506Z,998.86
2019-05-02T05:35:03.170Z,998.9
2019-05-02T05:35:59.798Z,998.87
2019-05-02T05:36:58.427Z,998.87
2019-05-02T05:37:57.361Z,998.85
2019-05-02T05:38:55.686Z,998.91
2019-05-02T05:39:54.246Z,998.89
2019-05-02T05:40:52.807Z,998.89
2019-05-02T05:41:52.381Z,998.91
2019-05-02T05:42:50.171Z,998.9
2019-05-02T05:43:49.900Z,998.88
2019-05-02T05:44:48.307Z,998.87
2019-05-02T05:45:51.658Z,998.89
2019-05-02T05:46:46.886Z,998.88
2019-05-02T05:47:43.325Z,998.89
2019-05-02T05:48:41.872Z,998.93
2019-05-02T05:49:40.434Z,998.9
2019-05-02T05:50:41.340Z,998.88
2019-05-02T05:51:37.611Z,998.87
2019-05-02T05:52:38.571Z,998.86
2019-05-02T05:53:37.323Z,998.83
2019-05-02T05:54:38.250Z,998.81
2019-05-02T05:55:32.190Z,998.88
2019-05-02T05:56:32.413Z,998.86
2019-05-02T05:57:29.424Z,998.89
2019-05-02T05:58:28.441Z,998.9
2019-05-02T05:59:27.912Z,998.89
2019-05-02T06:00:25.167Z,998.89
2019-05-02T06:01:25.868Z,998.91
2019-05-02T06:02:22.248Z,998.96
2019-05-02T06:03:21.007Z,998.93
2019-05-02T06:04:23.589Z,998.9
2019-05-02T06:05:18.251Z,998.89
2019-05-02T06:06:22.304Z,998.93
2019-05-02T06:07:17.574Z,998.94
2019-05-02T06:08:18.243Z,998.86
2019-05-02T06:09:13.917Z,998.85
2019-05-02T06:10:11.261Z,998.84
2019-05-02T06:11:09.833Z,998.84
2019-05-02T06:13:18.511Z,998.83
2019-05-02T06:14:19.870Z,998.8
2019-05-02T06:15:16.003Z,998.76
2019-05-02T06:16:16.528Z,998.77
2019-05-02T06:17:13.341Z,998.8
2019-05-02T06:18:11.943Z,998.79
2019-05-02T06:19:12.914Z,998.85
2019-05-02T06:20:09.062Z,998.84
2019-05-02T06:21:08.641Z,998.83
2019-05-02T06:22:06.170Z,998.8
2019-05-02T06:23:04.713Z,998.8
2019-05-02T06:24:03.299Z,998.83
2019-05-02T06:25:01.855Z,998.88
2019-05-02T06:26:00.400Z,998.81
2019-05-02T06:28:41.505Z,998.84
2019-05-02T06:29:39.635Z,998.83
2019-05-02T06:30:38.226Z,998.79
2019-05-02T06:31:38.086Z,998.84
2019-05-02T06:32:35.575Z,998.79
2019-05-02T06:33:34.122Z,998.79
2019-05-02T06:34:32.700Z,998.82
2019-05-02T06:35:31.822Z,998.81
2019-05-02T06:36:31.901Z,998.8
2019-05-02T06:37:29.146Z,998.81
2019-05-02T06:38:27.720Z,998.78
2019-05-02T06:39:26.979Z,998.73
2019-05-02T06:40:24.928Z,998.73
2019-05-02T06:41:23.614Z,998.76
2019-05-02T06:42:22.299Z,998.75
2019-05-02T06:43:20.866Z,998.8
2019-05-02T06:44:23.695Z,998.79
2019-05-02T06:45:17.994Z,998.86
2019-05-02T06:46:21.576Z,998.81
2019-05-02T06:47:15.600Z,998.81
2019-05-02T06:48:17.588Z,998.82
2019-05-02T06:49:12.800Z,998.89
2019-05-02T06:50:11.400Z,998.86
2019-05-02T06:51:10.402Z,998.81
2019-05-02T06:53:50.364Z,998.86
2019-05-02T06:54:49.345Z,998.88
2019-05-02T07:05:41.216Z,998.85
2019-05-02T07:06:50.025Z,998.86
2019-05-02T07:09:20.314Z,998.9
2019-05-02T07:10:19.934Z,998.87
2019-05-02T07:11:17.466Z,998.85
2019-05-02T07:12:16.608Z,998.88
2019-05-02T07:13:15.224Z,998.95
2019-05-02T07:14:14.027Z,998.88
2019-05-02T07:15:12.014Z,998.9
2019-05-02T07:16:15.217Z,998.91
2019-05-02T07:17:09.429Z,998.92
2019-05-02T07:18:10.538Z,998.92
2019-05-02T07:19:06.540Z,998.86
2019-05-02T07:20:05.348Z,998.9
2019-05-02T07:21:03.679Z,998.93
2019-05-02T07:22:04.317Z,998.88
2019-05-02T07:23:01.057Z,998.92
2019-05-02T07:23:59.747Z,998.92
2019-05-02T07:25:01.772Z,998.9
2019-05-02T07:26:00.014Z,998.89
2019-05-02T07:26:56.780Z,998.84
2019-05-02T07:27:54.214Z,998.86
2019-05-02T07:28:52.751Z,998.87
2019-05-02T07:29:52.017Z,998.89
2019-05-02T07:30:49.855Z,998.88
2019-05-02T07:31:48.891Z,998.88
2019-05-02T07:32:47.184Z,998.83
2019-05-02T07:33:45.730Z,998.9
2019-05-02T07:34:48.101Z,998.88
2019-05-02T07:35:43.241Z,998.82
2019-05-02T07:36:41.759Z,998.84
2019-05-02T07:37:43.947Z,998.84
2019-05-02T07:38:38.849Z,998.83
2019-05-02T07:39:40.846Z,998.82
2019-05-02T07:40:36.029Z,998.85
2019-05-02T07:41:37.080Z,998.86
2019-05-02T07:42:36.810Z,998.82
2019-05-02T07:43:31.805Z,998.79
2019-05-02T07:44:32.521Z,998.79
2019-05-02T07:45:29.338Z,998.73
2019-05-02T07:46:27.874Z,998.74
2019-05-02T07:47:28.717Z,998.73
2019-05-02T07:48:24.987Z,998.73
2019-05-02T07:49:26.511Z,998.74
2019-05-02T07:50:22.109Z,998.72
2019-05-02T07:51:21.224Z,998.73
2019-05-02T07:52:19.494Z,998.75
2019-05-02T07:53:18.047Z,998.71
2019-05-02T07:54:19.215Z,998.71
2019-05-02T07:55:15.360Z,998.74
2019-05-02T07:56:17.521Z,998.74
2019-05-02T07:57:12.536Z,998.73
2019-05-02T07:58:11.107Z,998.75
2019-05-02T07:59:09.652Z,998.76
2019-05-02T08:00:08.293Z,998.81
2019-05-02T08:01:07.911Z,998.8
2019-05-02T08:02:05.593Z,998.78
2019-05-02T08:03:05.091Z,998.72
2019-05-02T08:04:04.606Z,998.76
2019-05-02T08:05:01.515Z,998.81
2019-05-02T08:06:00.096Z,998.78
2019-05-02T08:06:58.697Z,998.75
2019-05-02T08:07:57.283Z,998.78
2019-05-02T08:08:55.846Z,998.8
2019-05-02T08:09:54.420Z,998.76
2019-05-02T08:10:53.337Z,998.77
2019-05-02T08:11:51.598Z,998.8
2019-05-02T08:12:50.151Z,998.79
2019-05-02T08:13:49.447Z,998.82
2019-05-02T08:14:47.535Z,998.74
2019-05-02T08:15:50.718Z,998.78
2019-05-02T08:16:44.735Z,998.74
2019-05-02T08:17:43.392Z,998.77
2019-05-02T08:18:41.961Z,998.73
2019-05-02T08:19:41.658Z,998.77
2019-05-02T08:20:39.430Z,998.76
2019-05-02T08:21:37.965Z,998.74
2019-05-02T08:22:36.536Z,998.78
2019-05-02T08:23:35.407Z,998.76
2019-05-02T08:24:37.824Z,998.78
2019-05-02T08:25:32.584Z,998.77
2019-05-02T08:26:31.124Z,998.81
2019-05-02T08:27:34.520Z,998.78
2019-05-02T08:28:28.301Z,998.79
2019-05-02T08:29:28.718Z,998.78
2019-05-02T08:30:25.634Z,998.78
2019-05-02T08:31:24.181Z,998.78
2019-05-02T08:32:22.738Z,998.78
2019-05-02T08:33:21.516Z,998.77
2019-05-02T08:34:20.091Z,998.76
2019-05-02T08:35:18.702Z,998.7
2019-05-02T08:36:17.272Z,998.66
2019-05-02T08:37:15.853Z,998.67
2019-05-02T08:38:17.727Z,998.6
2019-05-02T08:39:14.384Z,998.68
2019-05-02T08:40:12.074Z,998.62
2019-05-02T08:41:10.190Z,998.62
2019-05-02T08:42:08.913Z,998.61
2019-05-02T08:43:08.931Z,998.68
2019-05-02T08:44:06.229Z,998.66
2019-05-02T08:45:04.842Z,998.6
2019-05-02T08:46:03.432Z,998.6
2019-05-02T08:47:01.963Z,998.56
2019-05-02T08:48:05.074Z,998.54
2019-05-02T08:48:59.064Z,998.53
2019-05-02T08:49:57.637Z,998.56
2019-05-02T08:50:56.255Z,998.55
2019-05-02T08:51:55.002Z,998.55
2019-05-02T08:52:53.734Z,998.56
2019-05-02T08:53:56.692Z,998.59
2019-05-02T08:54:50.990Z,998.59
2019-05-02T08:55:49.558Z,998.56
2019-05-02T08:56:48.115Z,998.57
2019-05-02T08:57:46.688Z,998.53
2019-05-02T08:58:49.739Z,998.54
2019-05-02T08:59:44.008Z,998.5
2019-05-02T09:00:42.599Z,998.47
2019-05-02T09:01:44.674Z,998.42
2019-05-02T09:02:41.324Z,998.41
2019-05-02T09:03:54.582Z,998.44
2019-05-02T09:04:37.240Z,998.44
2019-05-02T09:05:36.345Z,998.45
2019-05-02T09:06:34.351Z,998.45
2019-05-02T09:07:36.954Z,998.44
2019-05-02T09:08:31.554Z,998.38
2019-05-02T09:09:30.157Z,998.38
2019-05-02T09:10:28.830Z,998.35
2019-05-02T09:11:27.546Z,998.29
2019-05-02T09:12:26.098Z,998.34
2019-05-02T09:13:29.063Z,998.32
2019-05-02T09:14:23.356Z,998.3
2019-05-02T09:15:22.372Z,998.31
2019-05-02T09:16:21.456Z,998.36
2019-05-02T09:17:32.839Z,998.29
2019-05-02T09:18:17.971Z,998.27
2019-05-02T09:19:21.175Z,998.19
2019-05-02T09:20:19.736Z,998.21
2019-05-02T09:21:14.485Z,998.2
2019-05-02T09:22:16.734Z,998.22
2019-05-02T09:23:12.349Z,998.22
2019-05-02T09:24:13.457Z,998.19
2019-05-02T09:25:09.066Z,998.19
2019-05-02T09:26:07.625Z,998.23
2019-05-02T09:27:06.177Z,998.23
2019-05-02T09:28:04.814Z,998.19
2019-05-02T09:29:05.334Z,998.15
2019-05-02T09:30:02.704Z,998.15
2019-05-02T09:31:02.776Z,998.17
2019-05-02T09:31:59.456Z,998.14
2019-05-02T09:33:02.683Z,998.17
2019-05-02T09:33:56.644Z,998.16
2019-05-02T09:34:56.547Z,998.15
2019-05-02T09:39:52.475Z,998.15
2019-05-02T09:40:52.443Z,998.12
2019-05-02T09:41:48.381Z,998.11
2019-05-02T09:42:47.472Z,998.09
2019-05-02T09:43:45.580Z,998.1
2019-05-02T09:44:47.880Z,998.12
2019-05-02T09:45:43.889Z,998.13
2019-05-02T09:46:42.810Z,998.13
2019-05-02T09:47:53.736Z,998.12
2019-05-02T09:48:38.397Z,998.1
2019-05-02T09:49:36.934Z,998.07
2019-05-02T09:50:38.153Z,998.06
2019-05-02T09:51:34.081Z,998.06
2019-05-02T09:52:39.152Z,998.01
2019-05-02T09:53:32.324Z,998.01
2019-05-02T09:54:32.061Z,997.99
2019-05-02T09:55:28.602Z,997.99
2019-05-02T09:56:27.328Z,997.95
2019-05-02T09:57:25.928Z,997.94
2019-05-02T09:58:24.469Z,997.94
2019-05-02T09:59:29.416Z,997.84
2019-05-02T10:01:21.832Z,997.9
2019-05-02T10:02:19.017Z,997.93
2019-05-02T10:03:17.732Z,997.85
2019-05-02T10:05:15.008Z,997.83
2019-05-02T10:06:18.011Z,997.84
2019-05-02T10:07:15.208Z,997.82
2019-05-02T10:08:13.559Z,997.84
2019-05-02T10:09:09.362Z,997.84
2019-05-02T10:10:07.923Z,997.83
2019-05-02T10:11:06.535Z,997.8
2019-05-02T10:12:05.242Z,997.83
2019-05-02T10:13:03.835Z,997.8
2019-05-02T10:14:02.571Z,997.8
2019-05-02T10:15:02.301Z,997.74
2019-05-02T10:16:01.838Z,997.76
2019-05-02T10:17:02.914Z,997.69
2019-05-02T10:18:07.776Z,997.73
2019-05-02T10:19:00.203Z,997.7
2019-05-02T10:19:58.281Z,997.7
2019-05-02T10:20:56.794Z,997.73
2019-05-02T10:21:56.424Z,997.68
2019-05-02T10:22:54.057Z,997.67
2019-05-02T10:23:58.872Z,997.66
2019-05-02T10:24:51.946Z,997.66
2019-05-02T10:25:51.876Z,997.67
2019-05-02T10:26:48.459Z,997.64
2019-05-02T10:27:47.567Z,997.58
2019-05-02T10:28:49.261Z,997.59
2019-05-02T10:29:44.133Z,997.58
2019-05-02T10:30:47.049Z,997.57
2019-05-02T10:31:42.087Z,997.56
2019-05-02T10:32:39.917Z,997.56
2019-05-02T10:33:38.463Z,997.54
2019-05-02T10:34:37.444Z,997.59
2019-05-02T10:35:40.308Z,997.5
2019-05-02T10:36:34.586Z,997.56
2019-05-02T10:37:38.154Z,997.52
2019-05-02T10:38:32.527Z,997.51
2019-05-02T10:39:33.784Z,997.5
2019-05-02T10:40:28.938Z,997.51
2019-05-02T10:41:31.610Z,997.51
2019-05-02T10:42:26.165Z,997.48
2019-05-02T10:43:24.848Z,997.38
2019-05-02T10:44:27.091Z,997.44
2019-05-02T10:45:22.467Z,997.41
2019-05-02T10:46:22.860Z,997.38
2019-05-02T10:47:19.268Z,997.39
2019-05-02T10:48:25.635Z,997.38
2019-05-02T10:49:16.356Z,997.44
2019-05-02T10:50:14.907Z,997.39
2019-05-02T10:51:13.661Z,997.4
2019-05-02T10:52:12.353Z,997.37
2019-05-02T10:53:15.152Z,997.36
2019-05-02T10:54:11.882Z,997.33
2019-05-02T10:55:08.170Z,997.32
2019-05-02T10:56:06.812Z,997.32
2019-05-02T10:57:05.466Z,997.21
2019-05-02T10:58:04.000Z,997.27
2019-05-02T10:59:02.571Z,997.24
2019-05-02T11:00:03.186Z,997.16
2019-05-02T11:00:59.932Z,997.17
2019-05-02T11:01:58.485Z,997.16
2019-05-02T11:02:57.221Z,997.12
2019-05-02T11:03:55.809Z,997.08
2019-05-02T11:04:54.342Z,997.11
2019-05-02T11:05:54.816Z,997.14
2019-05-02T11:06:51.862Z,997.1
2019-05-02T11:07:52.052Z,997.16
2019-05-02T11:08:48.670Z,997.09
2019-05-02T11:09:47.486Z,997.05
2019-05-02T11:10:46.046Z,997.07
2019-05-02T11:11:44.601Z,997.07
2019-05-02T11:12:46.781Z,997.06
2019-05-02T11:13:42.468Z,997.04
2019-05-02T11:14:42.152Z,996.99
2019-05-02T11:15:39.158Z,997
2019-05-02T11:16:37.743Z,996.94
2019-05-02T11:17:36.637Z,996.94
2019-05-02T11:18:41.837Z,996.93
2019-05-02T11:19:33.603Z,996.98
2019-05-02T11:20:32.138Z,996.96
2019-05-02T11:21:32.150Z,996.97
2019-05-02T11:22:29.325Z,996.96
2019-05-02T11:23:27.908Z,996.96
2019-05-02T11:24:26.482Z,996.99
2019-05-02T11:25:25.289Z,996.92
2019-05-02T11:26:25.171Z,996.85
2019-05-02T11:27:22.367Z,996.85
2019-05-02T11:28:21.983Z,996.81
2019-05-02T11:29:19.512Z,996.84
2019-05-02T11:30:22.187Z,996.8
2019-05-02T11:31:16.638Z,996.83
2019-05-02T11:32:15.432Z,996.84
2019-05-02T11:33:13.979Z,996.8
2019-05-02T11:34:12.569Z,996.79
2019-05-02T11:35:12.164Z,996.8
2019-05-02T11:36:09.974Z,996.87
2019-05-02T11:37:08.528Z,996.76
2019-05-02T11:38:07.153Z,996.77
2019-05-02T11:39:14.849Z,996.74
2019-05-02T11:40:05.764Z,996.77
2019-05-02T11:41:02.887Z,996.77
2019-05-02T11:42:02.162Z,996.7
2019-05-02T11:43:02.610Z,996.7
2019-05-02T11:43:58.958Z,996.64
2019-05-02T11:44:57.559Z,996.74
2019-05-02T11:46:02.207Z,996.77
2019-05-02T11:46:54.676Z,996.79
2019-05-02T11:47:55.858Z,996.76
2019-05-02T11:48:56.012Z,996.72
2019-05-02T11:49:51.912Z,996.79
2019-05-02T11:50:49.198Z,996.75
2019-05-02T11:51:52.449Z,996.77
2019-05-02T11:52:46.446Z,996.72
2019-05-02T11:53:45.079Z,996.72
2019-05-02T11:54:44.569Z,996.69
2019-05-02T11:55:43.831Z,996.71
2019-05-02T11:56:48.599Z,996.71
2019-05-02T11:57:39.355Z,996.66
2019-05-02T11:58:40.731Z,996.68
2019-05-02T11:59:36.536Z,996.65
2019-05-02T12:00:35.355Z,996.64
2019-05-02T12:01:38.972Z,996.64
2019-05-02T12:02:32.440Z,996.56
2019-05-02T12:03:33.328Z,996.59
2019-05-02T12:04:29.844Z,996.54
2019-05-02T12:05:31.619Z,996.49
2019-05-02T12:08:09.522Z,996.5
2019-05-02T12:09:07.740Z,996.53
2019-05-02T12:10:06.331Z,996.51
2019-05-02T12:11:08.316Z,996.47
2019-05-02T12:12:03.523Z,996.56
2019-05-02T12:13:02.239Z,996.54
2019-05-02T12:14:01.675Z,996.5
2019-05-02T12:14:59.518Z,996.53
2019-05-02T12:15:58.069Z,996.43
2019-05-02T12:26:56.916Z,996.41
2019-05-02T12:29:37.036Z,996.4
2019-05-02T12:30:37.621Z,996.35
2019-05-02T12:31:34.272Z,996.43
2019-05-02T12:34:23.486Z,996.28
2019-05-02T12:35:22.480Z,996.26
2019-05-02T12:36:22.592Z,996.22
2019-05-02T12:37:19.467Z,996.25
2019-05-02T12:38:18.046Z,996.29
2019-05-02T12:40:15.994Z,996.2
2019-05-02T12:41:21.802Z,996.2
2019-05-02T12:42:13.600Z,996.17
2019-05-02T12:43:12.111Z,996.23
2019-05-02T12:44:11.709Z,996.11
2019-05-02T12:45:09.137Z,996.15
2019-05-02T12:46:07.706Z,996.16
2019-05-02T12:48:22.513Z,996.21
2019-05-02T12:49:25.165Z,996.15
2019-05-02T12:50:19.837Z,996.15
2019-05-02T12:51:18.402Z,996.16
2019-05-02T12:52:17.251Z,996.12
2019-05-02T12:53:15.859Z,996.13
2019-05-02T12:54:14.438Z,996.11